Plaia De Rueta — EAAA — position and weather

sailwx.info

Track history (hours):
 
Tides and Currents Weather Stations Pressure Air Temp Water Temp Dewpoint Dewpoint Depression Visibility Wind Speed Wind Dir Waves Ship Positions

Plaia De Rueta

Last reported at 2017-Nov-17 13:41 UTC. Time now 2017-Nov-17 21:15 UTC.
Position N 43°33' W 005°42'.

Length 32 m; draft 6 m.

Type: Fishing. MMSI: 224100180.

Date/timePositionNaut miles runAvg speedWind from/ knotsBaromVisibWave heightAir tempDewpointWater temp
2017-Nov-17 13:41N 43°33' W 005°42'0 0.0
2017-Nov-17 13:30N 43°33' W 005°42'1 1.9
2017-Nov-17 13:00N 43°34' W 005°41'1 2.8
2017-Nov-17 12:30N 43°34' W 005°39'2 4.7
2017-Nov-17 12:00N 43°33' W 005°42'0 0.0
2017-Nov-17 11:30N 43°33' W 005°42'0 0.0
2017-Nov-17 11:00N 43°33' W 005°42'2 4.0
2017-Nov-17 10:30N 43°34' W 005°39'2 2.9
2017-Nov-17 09:59N 43°36' W 005°38'1 2.3
2017-Nov-17 09:30N 43°35' W 005°39'1 1.0
2017-Nov-17 09:00N 43°35' W 005°39'3 5.0
2017-Nov-17 08:30N 43°33' W 005°42'0 0.0
2017-Nov-17 08:00N 43°33' W 005°42'0 0.0
2017-Nov-17 07:30N 43°33' W 005°42'0 0.0
2017-Nov-17 07:00N 43°33' W 005°42'0 0.0
2017-Nov-17 06:30N 43°33' W 005°42'3 5.4
2017-Nov-17 05:59N 43°36' W 005°41'5 9.5
2017-Nov-17 05:30N 43°39' W 005°46'40 2.6
2017-Nov-16 13:52N 43°55' W 006°37'1 3.3
2017-Nov-16 13:30N 43°55' W 006°35'24 1.7
2017-Nov-15 23:14N 43°42' W 006°07'1510.0
2017-Nov-15 21:43N 43°40' W 005°46'210.1
2017-Nov-15 21:30N 43°38' W 005°44'5 9.3
2017-Nov-15 20:59N 43°34' W 005°40'1 2.7
2017-Nov-15 20:30N 43°33' W 005°42'0 0.9
2017-Nov-15 20:00N 43°34' W 005°41'4 8.9
2017-Nov-15 19:30N 43°38' W 005°41'9 9.3
2017-Nov-15 18:30N 43°47' W 005°45'2 3.0
2017-Nov-15 17:56N 43°48' W 005°46'1 3.2
2017-Nov-15 17:30N 43°49' W 005°44'3 3.0
2017-Nov-15 16:41N 43°50' W 005°41'1 3.2
2017-Nov-15 16:30N 43°50' W 005°40'4 0.8
2017-Nov-15 12:17N 43°53' W 005°37'1 0.2
2017-Nov-15 08:27N 43°53' W 005°38'2 3.4
2017-Nov-15 07:44N 43°53' W 005°35'1 3.3
2017-Nov-15 07:30N 43°53' W 005°34'2 3.3
2017-Nov-15 06:54N 43°53' W 005°31'2 5.4
2017-Nov-15 06:30N 43°52' W 005°28'510.1
2017-Nov-15 06:01N 43°51' W 005°21'2 3.6
2017-Nov-15 05:31N 43°51' W 005°19'2 3.3
2017-Nov-15 05:00N 43°50' W 005°17'2 3.3
2017-Nov-15 04:30N 43°49' W 005°15'2 3.3
2017-Nov-15 03:57N 43°48' W 005°13'2 3.4
2017-Nov-15 03:30N 43°48' W 005°11'2 3.3
2017-Nov-15 02:58N 43°47' W 005°09'1 3.3
2017-Nov-15 02:31N 43°47' W 005°07'43 4.7
2017-Nov-14 17:24N 43°29' W 004°13'1 0.1
2017-Nov-14 10:21N 43°28' W 004°13'65 5.3
2017-Nov-13 22:04N 43°33' W 005°42'0 0.5
2017-Nov-13 22:00N 43°33' W 005°42'11 0.5
2017-Nov-13 01:46N 43°41' W 005°52'3 9.8
2017-Nov-13 01:30N 43°40' W 005°49'5 9.7
2017-Nov-13 01:00N 43°38' W 005°44'  
2017-Nov-10 18:58N 43°33' W 005°42'0 0.0
2017-Nov-10 18:30N 43°33' W 005°42'20 5.9
2017-Nov-10 15:02N 43°36' W 005°14'0 1.0
2017-Nov-10 15:00N 43°36' W 005°14'1 2.4
2017-Nov-10 14:26N 43°35' W 005°12'1 0.3
2017-Nov-10 11:34N 43°36' W 005°13'0 4.5
2017-Nov-10 11:29N 43°36' W 005°14'0 0.4
2017-Nov-10 10:52N 43°36' W 005°14'7 2.7
2017-Nov-10 08:26N 43°37' W 005°05'4 8.3
2017-Nov-10 08:00N 43°40' W 005°03'3 2.2
2017-Nov-10 06:43N 43°41' W 004°59'1 3.1
2017-Nov-10 06:19N 43°41' W 004°58'2 3.0
2017-Nov-10 05:30N 43°43' W 004°56'13 0.4
2017-Nov-08 20:39N 43°37' W 005°11'2 9.0
2017-Nov-08 20:27N 43°36' W 005°14'4 8.8
2017-Nov-08 19:57N 43°36' W 005°20'4 8.7
2017-Nov-08 19:28N 43°35' W 005°25'5 8.8
2017-Nov-08 18:54N 43°35' W 005°32'4 8.9
2017-Nov-08 18:30N 43°35' W 005°37'4 7.1
2017-Nov-08 18:01N 43°33' W 005°42'0 0.2
2017-Nov-08 17:30N 43°33' W 005°42'4 7.9
2017-Nov-08 16:59N 43°37' W 005°42'5 9.5
2017-Nov-08 16:29N 43°40' W 005°48'7 8.9
2017-Nov-08 15:39N 43°41' W 005°58'2 8.0
2017-Nov-08 15:26N 43°41' W 006°00'2 2.9
2017-Nov-08 14:48N 43°41' W 006°03'7 1.0
2017-Nov-08 07:46N 43°48' W 006°06'3 3.2
2017-Nov-08 06:49N 43°45' W 006°05'1 1.7
2017-Nov-08 06:15N 43°44' W 006°06'1 5.0
2017-Nov-08 05:59N 43°44' W 006°04'5 9.6
2017-Nov-08 05:28N 43°43' W 005°57'5 9.6
2017-Nov-08 04:58N 43°43' W 005°50'5 9.3
2017-Nov-08 04:29N 43°42' W 005°44'5 9.1
2017-Nov-08 03:57N 43°42' W 005°38'4 8.9
2017-Nov-08 03:30N 43°41' W 005°32'5 8.7
2017-Nov-08 02:58N 43°40' W 005°26'5 9.2
2017-Nov-08 02:26N 43°39' W 005°19'  
Track history (hours):
 
Tides and Currents Weather Stations Pressure Air Temp Water Temp Dewpoint Dewpoint Depression Visibility Wind Speed Wind Dir Waves Ship Positions

Plaia De Rueta

Last reported at 2017-Nov-17 13:41 UTC. Time now 2017-Nov-17 21:15 UTC.
Position N 43°33' W 005°42'.

Length 32 m; draft 6 m.

Type: Fishing. MMSI: 224100180.

Date/timePositionNaut miles runAvg speedWind from/ knotsBaromVisibWave heightAir tempDewpointWater temp
2017-Nov-17 13:41N 43°33' W 005°42'0 0.0
2017-Nov-17 13:30N 43°33' W 005°42'1 1.9
2017-Nov-17 13:00N 43°34' W 005°41'1 2.8
2017-Nov-17 12:30N 43°34' W 005°39'2 4.7
2017-Nov-17 12:00N 43°33' W 005°42'0 0.0
2017-Nov-17 11:30N 43°33' W 005°42'0 0.0
2017-Nov-17 11:00N 43°33' W 005°42'2 4.0
2017-Nov-17 10:30N 43°34' W 005°39'2 2.9
2017-Nov-17 09:59N 43°36' W 005°38'1 2.3
2017-Nov-17 09:30N 43°35' W 005°39'1 1.0
2017-Nov-17 09:00N 43°35' W 005°39'3 5.0
2017-Nov-17 08:30N 43°33' W 005°42'0 0.0
2017-Nov-17 08:00N 43°33' W 005°42'0 0.0
2017-Nov-17 07:30N 43°33' W 005°42'0 0.0
2017-Nov-17 07:00N 43°33' W 005°42'0 0.0
2017-Nov-17 06:30N 43°33' W 005°42'3 5.4
2017-Nov-17 05:59N 43°36' W 005°41'5 9.5
2017-Nov-17 05:30N 43°39' W 005°46'40 2.6
2017-Nov-16 13:52N 43°55' W 006°37'1 3.3
2017-Nov-16 13:30N 43°55' W 006°35'24 1.7
2017-Nov-15 23:14N 43°42' W 006°07'1510.0
2017-Nov-15 21:43N 43°40' W 005°46'210.1
2017-Nov-15 21:30N 43°38' W 005°44'5 9.3
2017-Nov-15 20:59N 43°34' W 005°40'1 2.7
2017-Nov-15 20:30N 43°33' W 005°42'0 0.9
2017-Nov-15 20:00N 43°34' W 005°41'4 8.9
2017-Nov-15 19:30N 43°38' W 005°41'9 9.3
2017-Nov-15 18:30N 43°47' W 005°45'2 3.0
2017-Nov-15 17:56N 43°48' W 005°46'1 3.2
2017-Nov-15 17:30N 43°49' W 005°44'3 3.0
2017-Nov-15 16:41N 43°50' W 005°41'1 3.2
2017-Nov-15 16:30N 43°50' W 005°40'4 0.8
2017-Nov-15 12:17N 43°53' W 005°37'1 0.2
2017-Nov-15 08:27N 43°53' W 005°38'2 3.4
2017-Nov-15 07:44N 43°53' W 005°35'1 3.3
2017-Nov-15 07:30N 43°53' W 005°34'2 3.3
2017-Nov-15 06:54N 43°53' W 005°31'2 5.4
2017-Nov-15 06:30N 43°52' W 005°28'510.1
2017-Nov-15 06:01N 43°51' W 005°21'2 3.6
2017-Nov-15 05:31N 43°51' W 005°19'2 3.3
2017-Nov-15 05:00N 43°50' W 005°17'2 3.3
2017-Nov-15 04:30N 43°49' W 005°15'2 3.3
2017-Nov-15 03:57N 43°48' W 005°13'2 3.4
2017-Nov-15 03:30N 43°48' W 005°11'2 3.3
2017-Nov-15 02:58N 43°47' W 005°09'1 3.3
2017-Nov-15 02:31N 43°47' W 005°07'43 4.7
2017-Nov-14 17:24N 43°29' W 004°13'1 0.1
2017-Nov-14 10:21N 43°28' W 004°13'65 5.3
2017-Nov-13 22:04N 43°33' W 005°42'0 0.5
2017-Nov-13 22:00N 43°33' W 005°42'11 0.5
2017-Nov-13 01:46N 43°41' W 005°52'3 9.8
2017-Nov-13 01:30N 43°40' W 005°49'5 9.7
2017-Nov-13 01:00N 43°38' W 005°44'  
2017-Nov-10 18:58N 43°33' W 005°42'0 0.0
2017-Nov-10 18:30N 43°33' W 005°42'20 5.9
2017-Nov-10 15:02N 43°36' W 005°14'0 1.0
2017-Nov-10 15:00N 43°36' W 005°14'1 2.4
2017-Nov-10 14:26N 43°35' W 005°12'1 0.3
2017-Nov-10 11:34N 43°36' W 005°13'0 4.5
2017-Nov-10 11:29N 43°36' W 005°14'0 0.4
2017-Nov-10 10:52N 43°36' W 005°14'7 2.7
2017-Nov-10 08:26N 43°37' W 005°05'4 8.3
2017-Nov-10 08:00N 43°40' W 005°03'3 2.2
2017-Nov-10 06:43N 43°41' W 004°59'1 3.1
2017-Nov-10 06:19N 43°41' W 004°58'2 3.0
2017-Nov-10 05:30N 43°43' W 004°56'13 0.4
2017-Nov-08 20:39N 43°37' W 005°11'2 9.0
2017-Nov-08 20:27N 43°36' W 005°14'4 8.8
2017-Nov-08 19:57N 43°36' W 005°20'4 8.7
2017-Nov-08 19:28N 43°35' W 005°25'5 8.8
2017-Nov-08 18:54N 43°35' W 005°32'4 8.9
2017-Nov-08 18:30N 43°35' W 005°37'4 7.1
2017-Nov-08 18:01N 43°33' W 005°42'0 0.2
2017-Nov-08 17:30N 43°33' W 005°42'4 7.9
2017-Nov-08 16:59N 43°37' W 005°42'5 9.5
2017-Nov-08 16:29N 43°40' W 005°48'7 8.9
2017-Nov-08 15:39N 43°41' W 005°58'2 8.0
2017-Nov-08 15:26N 43°41' W 006°00'2 2.9
2017-Nov-08 14:48N 43°41' W 006°03'7 1.0
2017-Nov-08 07:46N 43°48' W 006°06'3 3.2
2017-Nov-08 06:49N 43°45' W 006°05'1 1.7
2017-Nov-08 06:15N 43°44' W 006°06'1 5.0
2017-Nov-08 05:59N 43°44' W 006°04'5 9.6
2017-Nov-08 05:28N 43°43' W 005°57'5 9.6
2017-Nov-08 04:58N 43°43' W 005°50'5 9.3
2017-Nov-08 04:29N 43°42' W 005°44'5 9.1
2017-Nov-08 03:57N 43°42' W 005°38'4 8.9
2017-Nov-08 03:30N 43°41' W 005°32'5 8.7
2017-Nov-08 02:58N 43°40' W 005°26'5 9.2
2017-Nov-08 02:26N 43°39' W 005°19'  

Dump ship's entire track history